Terminal Aerodrome Forecast
Issued by NWS Northern Indiana

Home | Current Version | Previous Version | Text Only | Print | Product List | Glossary Off
Versions: 1 2 3 4 5 6 7 8 9 10 11 12 13 14 15 16 17 18 19 20 21

757
FTUS43 KIWX 091943 AAA
TAFFWA
TAF AMD
KFWA 091943Z 0920/1018 22008KT 2SM -SN OVC015
      TEMPO 0920/0921 3/4SM -SN BKN008 OVC015
     FM092100 28010G18KT P6SM OVC023
     FM101000 27009KT P6SM BKN045=

USA.gov is the U.S. government's official web portal to all federal, state and local government web resources and services.